createdAt,value
2023-02-15T00:00:26.293Z,97671.63
2023-02-15T00:02:56.341Z,97663.38
2023-02-15T00:05:24.724Z,97659.50
2023-02-15T00:07:53.091Z,97656.63
2023-02-15T00:10:21.389Z,97649.03
2023-02-15T00:12:57.708Z,97645.22
2023-02-15T00:15:26.968Z,97646.75
2023-02-15T00:17:55.285Z,97647.13
2023-02-15T00:20:23.711Z,97642.56
2023-02-15T00:22:52.094Z,97638.03
2023-02-15T00:25:20.477Z,97640.56
2023-02-15T00:27:48.786Z,97629.22
2023-02-15T00:30:18.731Z,97630.25
2023-02-15T00:32:49.476Z,97635.56
2023-02-15T00:35:18.222Z,97632.13
2023-02-15T00:37:46.540Z,97626.91
2023-02-15T00:40:15.079Z,97635.66
2023-02-15T00:42:43.395Z,97633.03
2023-02-15T00:45:11.750Z,97628.84
2023-02-15T00:47:41.465Z,97637.03
2023-02-15T00:50:10.307Z,97637.41
2023-02-15T00:52:38.601Z,97628.69
2023-02-15T00:55:07.842Z,97635.25
2023-02-15T00:57:36.081Z,97630.44
2023-02-15T01:00:05.180Z,97628.41
2023-02-15T01:02:36.467Z,97627.56
2023-02-15T01:05:07.188Z,97625.03
2023-02-15T01:07:35.527Z,97631.97
2023-02-15T01:10:04.064Z,97619.81
2023-02-15T01:12:32.562Z,97620.72
2023-02-15T01:15:01.188Z,97623.34
2023-02-15T01:17:29.713Z,97621.66
2023-02-15T01:19:58.027Z,97617.09
2023-02-15T01:22:27.791Z,97618.59
2023-02-15T01:24:56.145Z,97622.81
2023-02-15T01:27:24.517Z,97614.06
2023-02-15T01:29:52.920Z,97608.91
2023-02-15T01:32:21.429Z,97614.97
2023-02-15T01:34:49.723Z,97609.00
2023-02-15T01:37:20.310Z,97605.63
2023-02-15T01:39:50.158Z,97606.47
2023-02-15T01:42:23.893Z,97603.84
2023-02-15T01:44:54.336Z,97604.78
2023-02-15T01:47:30.366Z,97597.78
2023-02-15T01:50:05.828Z,97596.88
2023-02-15T01:52:36.766Z,97590.88
2023-02-15T01:55:08.075Z,97589.94
2023-02-15T01:57:37.532Z,97583.88
2023-02-15T02:00:08.291Z,97583.03
2023-02-15T02:02:37.024Z,97572.84
2023-02-15T02:05:08.838Z,97581.50
2023-02-15T02:07:40.807Z,97574.63
2023-02-15T02:10:12.836Z,97569.56
2023-02-15T02:12:47.640Z,97569.47
2023-02-15T02:15:17.078Z,97567.69
2023-02-15T02:18:01.525Z,97572.91
2023-02-15T02:20:58.900Z,97566.78
2023-02-15T02:23:41.472Z,97565.28
2023-02-15T02:26:38.734Z,97564.44
2023-02-15T02:29:43.941Z,97569.69
2023-02-15T02:32:44.873Z,97561.72
2023-02-15T02:35:20.041Z,97560.06
2023-02-15T02:37:56.930Z,97554.91
2023-02-15T02:40:32.374Z,97553.31
2023-02-15T02:43:05.105Z,97552.75
2023-02-15T02:45:39.240Z,97552.75
2023-02-15T02:48:12.530Z,97549.31
2023-02-15T02:50:43.402Z,97545.56
2023-02-15T02:53:12.017Z,97540.16
2023-02-15T02:55:43.893Z,97541.00
2023-02-15T02:58:19.151Z,97536.78
2023-02-15T03:00:50.897Z,97536.69
2023-02-15T03:03:26.428Z,97537.53
2023-02-15T03:06:01.367Z,97528.13
2023-02-15T03:08:38.179Z,97528.31
2023-02-15T03:11:07.282Z,97525.13
2023-02-15T03:13:36.459Z,97526.03
2023-02-15T03:16:29.674Z,97529.22
2023-02-15T03:19:03.576Z,97529.81
2023-02-15T03:21:41.254Z,97528.94
2023-02-15T03:24:15.400Z,97521.09
2023-02-15T03:26:47.929Z,97525.34
2023-02-15T03:29:18.021Z,97524.38
2023-02-15T03:31:51.994Z,97523.63
2023-02-15T03:34:20.742Z,97524.66
2023-02-15T03:36:55.353Z,97517.66
2023-02-15T03:39:31.155Z,97514.38
2023-02-15T03:42:06.119Z,97517.28
2023-02-15T03:44:41.581Z,97523.63
2023-02-15T03:47:15.541Z,97525.28
2023-02-15T03:49:49.283Z,97512.13
2023-02-15T03:52:19.012Z,97515.03
2023-02-15T03:54:47.998Z,97516.03
2023-02-15T03:57:37.670Z,97510.06
2023-02-15T04:00:30.991Z,97517.25
2023-02-15T04:03:12.268Z,97510.25
2023-02-15T04:05:41.224Z,97516.31
2023-02-15T04:08:11.689Z,97513.63
2023-02-15T04:10:56.041Z,97517.44
2023-02-15T04:13:26.233Z,97516.75
2023-02-15T04:16:04.886Z,97513.31
2023-02-15T04:18:52.358Z,97521.91
2023-02-15T04:21:39.811Z,97527.22
2023-02-15T04:24:27.670Z,97522.06
2023-02-15T04:26:56.781Z,97525.31
2023-02-15T04:29:26.948Z,97531.72
2023-02-15T04:31:56.946Z,97531.31
2023-02-15T04:34:26.122Z,97538.25
2023-02-15T04:36:54.601Z,97545.25
2023-02-15T04:39:24.358Z,97535.56
2023-02-15T04:41:52.754Z,97543.94
2023-02-15T04:44:21.100Z,97539.28
2023-02-15T04:46:49.527Z,97549.03
2023-02-15T04:49:17.844Z,97541.78
2023-02-15T04:51:46.206Z,97550.88
2023-02-15T04:54:14.595Z,97546.50
2023-02-15T04:56:44.363Z,97557.28
2023-02-15T04:59:13.114Z,97552.41
2023-02-15T05:01:41.584Z,97557.38
2023-02-15T05:04:10.193Z,97559.72
2023-02-15T05:06:38.682Z,97561.91
2023-02-15T05:09:07.204Z,97559.03
2023-02-15T05:11:35.895Z,97558.84
2023-02-15T05:14:05.874Z,97564.00
2023-02-15T05:16:41.968Z,97563.16
2023-02-15T05:19:10.288Z,97560.38
2023-02-15T05:21:38.608Z,97572.44
2023-02-15T05:24:28.568Z,97564.69
2023-02-15T05:27:14.344Z,97562.81
2023-02-15T05:29:44.092Z,97563.50
2023-02-15T05:32:15.138Z,97564.41
2023-02-15T05:34:43.673Z,97568.63
2023-02-15T05:37:12.020Z,97564.25
2023-02-15T05:39:40.359Z,97571.13
2023-02-15T05:42:08.699Z,97565.84
2023-02-15T05:44:37.061Z,97576.13
2023-02-15T05:47:08.180Z,97576.94
2023-02-15T05:49:37.017Z,97578.66
2023-02-15T05:52:05.909Z,97585.47
2023-02-15T05:54:34.245Z,97580.22
2023-02-15T05:57:02.781Z,97578.81
2023-02-15T05:59:31.127Z,97576.47
2023-02-15T06:01:59.472Z,97578.31
2023-02-15T06:04:29.238Z,97581.09
2023-02-15T06:06:57.545Z,97583.09
2023-02-15T06:09:25.975Z,97583.63
2023-02-15T06:11:54.418Z,97585.50
2023-02-15T06:14:22.712Z,97589.09
2023-02-15T06:16:50.999Z,97587.59
2023-02-15T06:19:20.002Z,97580.69
2023-02-15T06:21:49.679Z,97586.66
2023-02-15T06:24:18.081Z,97584.81
2023-02-15T06:26:46.507Z,97587.25
2023-02-15T06:29:15.433Z,97583.94
2023-02-15T06:31:43.840Z,97584.72
2023-02-15T06:34:12.481Z,97583.88
2023-02-15T06:36:40.818Z,97592.88
2023-02-15T06:39:10.656Z,97588.41
2023-02-15T06:41:39.045Z,97593.13
2023-02-15T06:44:08.721Z,97589.44
2023-02-15T06:46:38.428Z,97592.47
2023-02-15T06:49:06.746Z,97589.34
2023-02-15T06:51:35.662Z,97587.31
2023-02-15T06:54:04.108Z,97583.72
2023-02-15T06:56:33.886Z,97587.84
2023-02-15T06:59:02.303Z,97591.81
2023-02-15T07:01:30.682Z,97581.16
2023-02-15T07:03:59.073Z,97589.75
2023-02-15T07:06:27.490Z,97582.78
2023-02-15T07:08:55.863Z,97586.16
2023-02-15T07:11:41.643Z,97578.97
2023-02-15T07:14:11.501Z,97584.84
2023-02-15T07:16:39.912Z,97588.16
2023-02-15T07:19:09.099Z,97586.28
2023-02-15T07:21:38.084Z,97582.69
2023-02-15T07:24:06.899Z,97587.91
2023-02-15T07:26:35.243Z,97581.16
2023-02-15T07:29:03.596Z,97592.47
2023-02-15T07:31:33.438Z,97584.19
2023-02-15T07:34:01.764Z,97589.97
2023-02-15T07:36:30.117Z,97589.06
2023-02-15T07:38:58.436Z,97590.91
2023-02-15T07:41:26.758Z,97597.81
2023-02-15T07:43:57.784Z,97589.97
2023-02-15T07:46:26.182Z,97591.84
2023-02-15T07:48:56.043Z,97592.69
2023-02-15T07:51:24.451Z,97592.84
2023-02-15T07:53:56.239Z,97586.56
2023-02-15T07:56:24.784Z,97582.69
2023-02-15T07:58:53.229Z,97579.44
2023-02-15T08:01:25.434Z,97587.88
2023-02-15T08:03:56.008Z,97588.34
2023-02-15T08:06:26.515Z,97574.00
2023-02-15T08:08:55.314Z,97579.91
2023-02-15T08:11:30.187Z,97577.97
2023-02-15T08:14:00.992Z,97581.72
2023-02-15T08:16:33.381Z,97581.19
2023-02-15T08:19:05.414Z,97579.63
2023-02-15T08:21:35.628Z,97576.16
2023-02-15T08:24:05.051Z,97573.94
2023-02-15T08:26:34.137Z,97566.28
2023-02-15T08:29:03.266Z,97571.69
2023-02-15T08:31:31.891Z,97561.59
2023-02-15T08:34:00.352Z,97566.44
2023-02-15T08:36:33.579Z,97565.41
2023-02-15T08:39:03.973Z,97568.69
2023-02-15T08:41:33.692Z,97561.47
2023-02-15T08:44:05.833Z,97562.56
2023-02-15T08:46:36.404Z,97553.88
2023-02-15T08:49:05.696Z,97562.72
2023-02-15T08:51:37.549Z,97559.81
2023-02-15T08:54:08.369Z,97561.03
2023-02-15T08:56:39.124Z,97564.16
2023-02-15T08:59:08.894Z,97563.63
2023-02-15T09:01:37.531Z,97566.41
2023-02-15T09:04:09.635Z,97566.75
2023-02-15T09:06:40.402Z,97563.38
2023-02-15T09:09:09.491Z,97553.03
2023-02-15T09:11:40.231Z,97558.41
2023-02-15T09:14:10.675Z,97554.06
2023-02-15T09:16:40.053Z,97555.13
2023-02-15T09:19:08.885Z,97555.50
2023-02-15T09:21:40.141Z,97557.16
2023-02-15T09:24:14.746Z,97559.13
2023-02-15T09:26:44.875Z,97552.50
2023-02-15T09:29:14.594Z,97553.88
2023-02-15T09:31:45.588Z,97557.00
2023-02-15T09:34:19.977Z,97552.97
2023-02-15T09:36:50.439Z,97558.63
2023-02-15T09:39:21.323Z,97560.22
2023-02-15T09:42:11.865Z,97562.09
2023-02-15T09:45:06.079Z,97565.50
2023-02-15T09:48:07.112Z,97552.69
2023-02-15T09:50:44.881Z,97559.94
2023-02-15T09:53:35.364Z,97561.44
2023-02-15T09:56:12.243Z,97560.75
2023-02-15T09:58:49.482Z,97559.72
2023-02-15T10:01:27.355Z,97559.72
2023-02-15T10:04:07.480Z,97557.41
2023-02-15T10:06:42.916Z,97555.84
2023-02-15T10:09:29.811Z,97552.06
2023-02-15T10:12:11.111Z,97551.47
2023-02-15T10:14:54.698Z,97539.81
2023-02-15T10:17:35.110Z,97547.22
2023-02-15T10:20:19.094Z,97541.56
2023-02-15T10:23:10.440Z,97540.16
2023-02-15T10:25:47.395Z,97533.75
2023-02-15T10:28:20.251Z,97538.88
2023-02-15T10:30:51.455Z,97529.06
2023-02-15T10:33:37.461Z,97532.50
2023-02-15T10:36:19.188Z,97526.25
2023-02-15T10:38:54.142Z,97517.91
2023-02-15T10:41:35.336Z,97521.53
2023-02-15T10:44:22.760Z,97517.28
2023-02-15T10:47:04.749Z,97518.41
2023-02-15T10:49:49.103Z,97518.91
2023-02-15T10:52:28.697Z,97508.03
2023-02-15T10:55:08.584Z,97502.19
2023-02-15T10:57:50.758Z,97502.91
2023-02-15T11:00:26.970Z,97489.91
2023-02-15T11:03:17.578Z,97493.16
2023-02-15T11:05:59.765Z,97492.41
2023-02-15T11:08:31.576Z,97486.56
2023-02-15T11:11:04.880Z,97482.50
2023-02-15T11:13:40.371Z,97485.38
2023-02-15T11:16:14.050Z,97473.41
2023-02-15T11:18:47.505Z,97469.66
2023-02-15T11:21:22.697Z,97465.19
2023-02-15T11:23:51.999Z,97460.97
2023-02-15T11:26:29.027Z,97461.91
2023-02-15T11:29:03.732Z,97448.09
2023-02-15T11:31:43.599Z,97451.44
2023-02-15T11:34:19.874Z,97446.50
2023-02-15T11:36:52.300Z,97444.22
2023-02-15T11:39:24.084Z,97440.66
2023-02-15T11:41:55.423Z,97433.94
2023-02-15T11:44:30.024Z,97432.31
2023-02-15T11:46:58.518Z,97430.72
2023-02-15T11:49:31.715Z,97426.63
2023-02-15T11:52:02.274Z,97425.19
2023-02-15T11:54:33.476Z,97423.03
2023-02-15T11:57:07.438Z,97417.59
2023-02-15T11:59:42.353Z,97417.38
2023-02-15T12:02:18.957Z,97412.44
2023-02-15T12:04:54.636Z,97402.34
2023-02-15T12:07:27.079Z,97408.34
2023-02-15T12:10:05.318Z,97406.09
2023-02-15T12:12:35.870Z,97398.59
2023-02-15T12:15:07.224Z,97393.00
2023-02-15T12:17:40.258Z,97387.75
2023-02-15T12:20:26.717Z,97384.84
2023-02-15T12:23:02.971Z,97387.63
2023-02-15T12:25:37.871Z,97378.88
2023-02-15T12:28:18.989Z,97379.44
2023-02-15T12:30:48.828Z,97373.31
2023-02-15T12:33:24.523Z,97363.13
2023-02-15T12:36:00.623Z,97374.13
2023-02-15T12:38:30.430Z,97363.13
2023-02-15T12:41:00.785Z,97368.69
2023-02-15T12:43:33.976Z,97363.81
2023-02-15T12:46:23.885Z,97364.34
2023-02-15T12:49:09.126Z,97362.09
2023-02-15T12:51:49.656Z,97360.25
2023-02-15T12:54:30.708Z,97351.31
2023-02-15T12:56:59.550Z,97356.44
2023-02-15T12:59:38.654Z,97339.63
2023-02-15T13:02:17.554Z,97341.72
2023-02-15T13:04:51.550Z,97341.72
2023-02-15T13:07:20.290Z,97335.38
2023-02-15T13:09:49.884Z,97329.34
2023-02-15T13:12:23.121Z,97329.75
2023-02-15T13:14:55.650Z,97326.94
2023-02-15T13:17:30.497Z,97321.72
2023-02-15T13:20:03.756Z,97323.38
2023-02-15T13:22:43.146Z,97316.78
2023-02-15T13:25:21.675Z,97318.47
2023-02-15T13:27:54.748Z,97311.59
2023-02-15T13:30:27.564Z,97307.19
2023-02-15T13:33:02.437Z,97311.88
2023-02-15T13:35:40.267Z,97308.94
2023-02-15T13:38:21.233Z,97300.69
2023-02-15T13:40:55.629Z,97300.38
2023-02-15T13:43:37.476Z,97289.81
2023-02-15T13:46:19.819Z,97287.59
2023-02-15T13:48:58.834Z,97283.63
2023-02-15T13:51:37.461Z,97284.31
2023-02-15T13:54:25.318Z,97284.31
2023-02-15T13:57:04.004Z,97284.69
2023-02-15T13:59:57.250Z,97280.06
2023-02-15T14:02:44.830Z,97268.44
2023-02-15T14:05:39.823Z,97271.63
2023-02-15T14:08:16.111Z,97268.16
2023-02-15T14:10:58.734Z,97270.81
2023-02-15T14:13:58.781Z,97264.03
2023-02-15T14:16:36.571Z,97269.53
2023-02-15T14:19:16.696Z,97267.25
2023-02-15T14:21:50.708Z,97273.25
2023-02-15T14:24:29.420Z,97270.59
2023-02-15T14:27:06.569Z,97264.31
2023-02-15T14:29:48.571Z,97264.97
2023-02-15T14:32:24.414Z,97265.31
2023-02-15T14:34:55.715Z,97263.56
2023-02-15T14:37:37.226Z,97264.13
2023-02-15T14:40:30.214Z,97257.53
2023-02-15T14:43:03.157Z,97265.72
2023-02-15T14:45:43.882Z,97265.47
2023-02-15T14:48:18.227Z,97261.34
2023-02-15T14:50:48.379Z,97257.41
2023-02-15T14:53:24.458Z,97257.25
2023-02-15T14:56:09.025Z,97255.81
2023-02-15T14:58:37.840Z,97259.28
2023-02-15T15:01:09.774Z,97248.84
2023-02-15T15:03:45.318Z,97247.81
2023-02-15T15:06:26.679Z,97247.16
2023-02-15T15:09:01.505Z,97246.84
2023-02-15T15:11:45.072Z,97251.81
2023-02-15T15:14:41.359Z,97252.56
2023-02-15T15:17:13.882Z,97245.19
2023-02-15T15:20:00.619Z,97242.50
2023-02-15T15:22:30.614Z,97245.59
2023-02-15T15:25:00.953Z,97249.53
2023-02-15T15:27:54.388Z,97251.13
2023-02-15T15:30:51.985Z,97253.69
2023-02-15T15:33:54.688Z,97249.78
2023-02-15T15:37:11.893Z,97256.66
2023-02-15T15:40:22.645Z,97251.56
2023-02-15T15:43:12.985Z,97248.16
2023-02-15T15:46:08.729Z,97253.56
2023-02-15T15:48:39.036Z,97246.34
2023-02-15T15:51:16.581Z,97247.31
2023-02-15T15:53:49.476Z,97251.53
2023-02-15T15:56:22.700Z,97252.28
2023-02-15T15:58:56.225Z,97243.28
2023-02-15T16:01:30.031Z,97247.97
2023-02-15T16:04:01.677Z,97251.50
2023-02-15T16:06:36.478Z,97255.06
2023-02-15T16:09:17.747Z,97256.91
2023-02-15T16:11:47.633Z,97261.31
2023-02-15T16:14:22.585Z,97257.69
2023-02-15T16:16:54.418Z,97262.09
2023-02-15T16:19:28.188Z,97266.72
2023-02-15T16:21:59.582Z,97273.03
2023-02-15T16:24:44.542Z,97271.78
2023-02-15T16:27:28.401Z,97277.41
2023-02-15T16:29:58.234Z,97269.75
2023-02-15T16:32:29.114Z,97279.94
2023-02-15T16:34:59.101Z,97280.94
2023-02-15T16:37:29.450Z,97287.88
2023-02-15T16:39:58.212Z,97292.22
2023-02-15T16:42:27.081Z,97289.28
2023-02-15T16:45:03.021Z,97290.94
2023-02-15T16:47:36.009Z,97295.94
2023-02-15T16:50:06.269Z,97305.41
2023-02-15T16:52:36.334Z,97305.22
2023-02-15T16:55:07.679Z,97314.81
2023-02-15T16:57:40.120Z,97314.78
2023-02-15T17:00:21.541Z,97313.94
2023-02-15T17:02:59.847Z,97317.50
2023-02-15T17:05:33.726Z,97316.09
2023-02-15T17:08:16.951Z,97316.75
2023-02-15T17:11:02.528Z,97326.88
2023-02-15T17:13:31.748Z,97329.19
2023-02-15T17:16:30.511Z,97325.53
2023-02-15T17:19:00.368Z,97326.56
2023-02-15T17:21:34.888Z,97323.47
2023-02-15T17:24:05.214Z,97319.31
2023-02-15T17:26:36.804Z,97322.91
2023-02-15T17:29:22.496Z,97330.25
2023-02-15T17:31:54.277Z,97334.25
2023-02-15T17:34:44.795Z,97334.59
2023-02-15T17:37:14.765Z,97330.97
2023-02-15T17:39:43.439Z,97338.41
2023-02-15T17:42:11.821Z,97336.28
2023-02-15T17:44:40.226Z,97341.59
2023-02-15T17:47:16.947Z,97339.41
2023-02-15T17:49:45.656Z,97351.81
2023-02-15T17:52:15.013Z,97344.06
2023-02-15T17:55:01.431Z,97345.13
2023-02-15T17:57:31.107Z,97349.69
2023-02-15T18:00:17.029Z,97350.78
2023-02-15T18:03:06.045Z,97350.66
2023-02-15T18:05:51.870Z,97353.31
2023-02-15T18:08:45.164Z,97352.69
2023-02-15T18:11:31.707Z,97355.69
2023-02-15T18:14:01.486Z,97354.53
2023-02-15T18:16:33.254Z,97362.44
2023-02-15T18:19:04.819Z,97361.72
2023-02-15T18:21:34.361Z,97363.84
2023-02-15T18:24:02.816Z,97363.41
2023-02-15T18:26:31.340Z,97359.91
2023-02-15T18:29:00.114Z,97361.81
2023-02-15T18:31:28.767Z,97362.78
2023-02-15T18:33:59.637Z,97363.72
2023-02-15T18:36:33.436Z,97366.63
2023-02-15T18:39:07.758Z,97365.91
2023-02-15T18:41:37.355Z,97370.66
2023-02-15T18:44:12.730Z,97371.03
2023-02-15T18:46:41.038Z,97371.97
2023-02-15T18:49:09.443Z,97376.41
2023-02-15T18:51:40.231Z,97372.94
2023-02-15T18:54:18.186Z,97368.13
2023-02-15T18:56:50.119Z,97374.13
2023-02-15T18:59:19.019Z,97365.84
2023-02-15T19:01:47.366Z,97363.22
2023-02-15T19:04:15.728Z,97359.66
2023-02-15T19:06:48.829Z,97360.69
2023-02-15T19:09:20.842Z,97361.44
2023-02-15T19:11:52.574Z,97366.88
2023-02-15T19:14:29.560Z,97366.78
2023-02-15T19:16:59.223Z,97373.81
2023-02-15T19:19:28.613Z,97371.16
2023-02-15T19:21:58.332Z,97368.53
2023-02-15T19:24:38.098Z,97374.38
2023-02-15T19:27:08.588Z,97369.25
2023-02-15T19:29:38.609Z,97370.28
2023-02-15T19:32:08.524Z,97366.31
2023-02-15T19:34:38.140Z,97369.50
2023-02-15T19:37:17.243Z,97375.22
2023-02-15T19:39:45.932Z,97377.13
2023-02-15T19:42:22.890Z,97391.94
2023-02-15T19:44:54.609Z,97386.88
2023-02-15T19:47:23.066Z,97391.63
2023-02-15T19:49:51.746Z,97389.13
2023-02-15T19:52:24.243Z,97395.22
2023-02-15T19:54:55.632Z,97384.31
2023-02-15T19:57:24.917Z,97391.69
2023-02-15T19:59:53.274Z,97391.06
2023-02-15T20:02:21.764Z,97385.09
2023-02-15T20:04:50.259Z,97395.94
2023-02-15T20:07:27.101Z,97398.75
2023-02-15T20:09:55.565Z,97399.69
2023-02-15T20:12:26.004Z,97397.19
2023-02-15T20:14:54.520Z,97410.50
2023-02-15T20:17:23.226Z,97391.88
2023-02-15T20:19:51.640Z,97399.63
2023-02-15T20:22:25.506Z,97392.78
2023-02-15T20:24:56.181Z,97401.63
2023-02-15T20:27:25.083Z,97397.66
2023-02-15T20:29:56.742Z,97389.50
2023-02-15T20:32:26.007Z,97386.34
2023-02-15T20:34:54.593Z,97388.22
2023-02-15T20:37:28.902Z,97397.34
2023-02-15T20:39:57.325Z,97389.28
2023-02-15T20:42:25.733Z,97397.28
2023-02-15T20:44:54.269Z,97396.63
2023-02-15T20:47:22.686Z,97390.34
2023-02-15T20:49:51.318Z,97387.28
2023-02-15T20:52:21.688Z,97393.91
2023-02-15T20:54:51.794Z,97392.00
2023-02-15T20:57:20.154Z,97390.66
2023-02-15T20:59:48.539Z,97383.09
2023-02-15T21:02:20.133Z,97378.81
2023-02-15T21:04:49.030Z,97377.34
2023-02-15T21:07:18.628Z,97379.09
2023-02-15T21:09:47.373Z,97370.31
2023-02-15T21:12:18.840Z,97377.34
2023-02-15T21:14:47.534Z,97379.13
2023-02-15T21:17:17.609Z,97366.53
2023-02-15T21:19:46.241Z,97373.72
2023-02-15T21:22:16.736Z,97370.66
2023-02-15T21:24:50.403Z,97370.72
2023-02-15T21:27:20.865Z,97367.16
2023-02-15T21:29:49.275Z,97373.34
2023-02-15T21:32:19.009Z,97368.84
2023-02-15T21:34:47.434Z,97367.38
2023-02-15T21:37:29.250Z,97364.03
2023-02-15T21:39:57.714Z,97365.25
2023-02-15T21:42:46.796Z,97368.28
2023-02-15T21:45:34.068Z,97373.13
2023-02-15T21:48:02.773Z,97368.53
2023-02-15T21:50:49.203Z,97367.16
2023-02-15T21:53:25.908Z,97369.13
2023-02-15T21:55:58.245Z,97372.38
2023-02-15T21:58:30.054Z,97370.91
2023-02-15T22:01:00.350Z,97365.88
2023-02-15T22:03:32.763Z,97364.84
2023-02-15T22:06:01.681Z,97366.72
2023-02-15T22:08:30.088Z,97366.25
2023-02-15T22:10:59.149Z,97371.41
2023-02-15T22:13:31.949Z,97382.88
2023-02-15T22:16:00.712Z,97382.88
2023-02-15T22:18:33.841Z,97374.69
2023-02-15T22:21:04.431Z,97373.56
2023-02-15T22:23:33.872Z,97375.78
2023-02-15T22:26:06.090Z,97369.59
2023-02-15T22:28:38.645Z,97369.81
2023-02-15T22:31:12.866Z,97372.41
2023-02-15T22:33:42.312Z,97375.03
2023-02-15T22:36:23.737Z,97386.25
2023-02-15T22:38:52.128Z,97375.88
2023-02-15T22:41:21.018Z,97381.31
2023-02-15T22:43:51.000Z,97381.41
2023-02-15T22:46:22.364Z,97378.56
2023-02-15T22:48:51.649Z,97379.63
2023-02-15T22:51:22.268Z,97379.91
2023-02-15T22:53:52.272Z,97377.38
2023-02-15T22:56:26.653Z,97387.00
2023-02-15T22:59:01.717Z,97389.22
2023-02-15T23:01:32.706Z,97386.72
2023-02-15T23:04:03.600Z,97384.88
2023-02-15T23:06:32.860Z,97386.16
2023-02-15T23:09:01.768Z,97390.34
2023-02-15T23:11:30.265Z,97382.16
2023-02-15T23:14:00.039Z,97383.56
2023-02-15T23:16:28.458Z,97380.09
2023-02-15T23:19:01.919Z,97385.41
2023-02-15T23:21:32.671Z,97372.06
2023-02-15T23:24:14.411Z,97372.19
2023-02-15T23:26:42.787Z,97365.19
2023-02-15T23:29:15.783Z,97359.88
2023-02-15T23:31:46.045Z,97350.63
2023-02-15T23:34:17.415Z,97353.25
2023-02-15T23:36:46.085Z,97353.91
2023-02-15T23:39:34.473Z,97352.88
2023-02-15T23:42:06.118Z,97351.38
2023-02-15T23:44:35.857Z,97345.41
2023-02-15T23:47:04.751Z,97337.56
2023-02-15T23:49:33.054Z,97340.09
2023-02-15T23:52:02.629Z,97332.25
2023-02-15T23:54:30.965Z,97328.91
2023-02-15T23:57:01.950Z,97322.91
2023-02-15T23:59:32.614Z,97319.53
